createdAt,value
2023-01-18T00:01:16.450Z,97052.69
2023-01-18T00:03:43.115Z,97050.28
2023-01-18T00:06:11.116Z,97039.16
2023-01-18T00:08:39.163Z,97038.31
2023-01-18T00:11:08.623Z,97044.53
2023-01-18T00:13:35.781Z,97032.03
2023-01-18T00:16:04.306Z,97040.47
2023-01-18T00:18:31.206Z,97039.59
2023-01-18T00:21:06.095Z,97044.06
2023-01-18T00:23:33.115Z,97032.31
2023-01-18T00:26:10.932Z,97039.28
2023-01-18T00:28:38.859Z,97042.06
2023-01-18T00:31:17.095Z,97043.81
2023-01-18T00:33:45.495Z,97043.09
2023-01-18T00:36:12.574Z,97030.75
2023-01-18T00:38:39.323Z,97033.50
2023-01-18T00:41:06.118Z,97042.28
2023-01-18T00:43:38.630Z,97043.22
2023-01-18T00:46:17.884Z,97041.41
2023-01-18T00:48:44.784Z,97047.16
2023-01-18T00:51:17.627Z,97038.75
2023-01-18T00:53:44.771Z,97028.94
2023-01-18T00:56:14.275Z,97040.25
2023-01-18T00:58:40.908Z,97043.09
2023-01-18T01:01:08.730Z,97032.53
2023-01-18T01:03:54.775Z,97038.16
2023-01-18T01:06:45.203Z,97045.09
2023-01-18T01:09:21.115Z,97045.97
2023-01-18T01:12:07.165Z,97051.25
2023-01-18T01:14:54.720Z,97048.50
2023-01-18T01:17:40.196Z,97050.25
2023-01-18T01:20:26.076Z,97050.84
2023-01-18T01:23:11.394Z,97041.84
2023-01-18T01:25:56.229Z,97051.84
2023-01-18T01:28:22.935Z,97052.16
2023-01-18T01:30:49.580Z,97052.03
2023-01-18T01:33:17.918Z,97062.13
2023-01-18T01:35:44.615Z,97063.06
2023-01-18T01:38:11.130Z,97064.22
2023-01-18T01:40:37.650Z,97058.34
2023-01-18T01:43:04.332Z,97073.84
2023-01-18T01:45:32.212Z,97070.00
2023-01-18T01:47:59.307Z,97074.66
2023-01-18T01:50:35.430Z,97074.78
2023-01-18T01:53:02.586Z,97073.03
2023-01-18T01:55:41.182Z,97073.41
2023-01-18T01:58:12.665Z,97075.91
2023-01-18T02:03:25.400Z,97088.97
2023-01-18T02:06:09.932Z,97087.53
2023-01-18T02:08:36.655Z,97088.50
2023-01-18T02:11:03.164Z,97080.44
2023-01-18T02:13:30.445Z,97082.84
2023-01-18T02:16:06.804Z,97083.06
2023-01-18T02:18:59.626Z,97075.91
2023-01-18T02:21:33.925Z,97071.34
2023-01-18T02:24:50.626Z,97076.63
2023-01-18T02:27:25.873Z,97069.31
2023-01-18T02:30:26.815Z,97082.34
2023-01-18T02:33:08.690Z,97082.38
2023-01-18T02:35:47.206Z,97078.63
2023-01-18T02:38:19.274Z,97082.41
2023-01-18T02:40:58.228Z,97079.44
2023-01-18T02:43:45.012Z,97074.03
2023-01-18T02:46:30.819Z,97084.47
2023-01-18T02:48:59.039Z,97086.03
2023-01-18T02:51:25.557Z,97092.56
2023-01-18T02:53:52.116Z,97087.28
2023-01-18T02:56:28.150Z,97094.31
2023-01-18T02:59:20.228Z,97094.16
2023-01-18T03:01:59.201Z,97094.63
2023-01-18T03:04:30.291Z,97095.91
2023-01-18T03:07:05.613Z,97089.56
2023-01-18T03:09:32.194Z,97095.06
2023-01-18T03:12:10.764Z,97101.91
2023-01-18T03:15:05.062Z,97094.34
2023-01-18T03:17:42.636Z,97092.63
2023-01-18T03:20:18.228Z,97099.31
2023-01-18T03:23:27.646Z,97092.69
2023-01-18T03:25:57.063Z,97095.72
2023-01-18T03:28:54.763Z,97096.22
2023-01-18T03:31:56.096Z,97086.38
2023-01-18T03:34:25.470Z,97083.56
2023-01-18T03:36:53.847Z,97082.69
2023-01-18T03:39:28.952Z,97099.31
2023-01-18T03:42:00.721Z,97094.72
2023-01-18T03:44:38.850Z,97093.69
2023-01-18T03:47:06.685Z,97099.34
2023-01-18T03:49:35.003Z,97097.50
2023-01-18T03:52:10.427Z,97104.63
2023-01-18T03:55:04.170Z,97111.28
2023-01-18T03:57:50.682Z,97105.75
2023-01-18T04:00:17.744Z,97103.53
2023-01-18T04:02:45.761Z,97104.59
2023-01-18T04:05:13.063Z,97107.47
2023-01-18T04:07:39.683Z,97115.00
2023-01-18T04:10:06.796Z,97108.47
2023-01-18T04:12:35.112Z,97099.94
2023-01-18T04:15:02.477Z,97099.94
2023-01-18T04:17:29.089Z,97105.03
2023-01-18T04:19:55.814Z,97108.00
2023-01-18T04:22:22.494Z,97110.66
2023-01-18T04:24:49.021Z,97121.47
2023-01-18T04:27:15.703Z,97129.53
2023-01-18T04:29:42.281Z,97140.56
2023-01-18T04:32:08.778Z,97141.75
2023-01-18T04:34:35.497Z,97144.25
2023-01-18T04:37:02.082Z,97151.47
2023-01-18T04:39:28.583Z,97148.41
2023-01-18T04:41:57.116Z,97146.34
2023-01-18T04:44:24.168Z,97139.06
2023-01-18T04:46:51.188Z,97139.13
2023-01-18T04:49:17.917Z,97130.03
2023-01-18T04:51:46.182Z,97140.88
2023-01-18T04:54:14.529Z,97144.78
2023-01-18T04:56:41.179Z,97150.28
2023-01-18T04:59:07.936Z,97159.41
2023-01-18T05:01:35.736Z,97163.88
2023-01-18T05:04:02.353Z,97165.59
2023-01-18T05:06:29.036Z,97169.84
2023-01-18T05:08:55.522Z,97180.34
2023-01-18T05:11:23.425Z,97184.63
2023-01-18T05:13:50.291Z,97193.00
2023-01-18T05:16:20.097Z,97190.41
2023-01-18T05:18:46.978Z,97193.19
2023-01-18T05:21:14.532Z,97192.50
2023-01-18T05:23:41.326Z,97194.53
2023-01-18T05:26:14.632Z,97203.09
2023-01-18T05:28:42.368Z,97189.22
2023-01-18T05:31:09.129Z,97202.47
2023-01-18T05:33:35.946Z,97205.56
2023-01-18T05:36:02.503Z,97204.47
2023-01-18T05:38:29.018Z,97206.81
2023-01-18T05:40:55.725Z,97209.75
2023-01-18T05:43:24.378Z,97198.78
2023-01-18T05:45:51.046Z,97206.31
2023-01-18T05:48:18.610Z,97209.34
2023-01-18T05:50:46.674Z,97215.84
2023-01-18T05:53:15.680Z,97214.53
2023-01-18T05:55:43.012Z,97213.81
2023-01-18T05:58:10.123Z,97216.91
2023-01-18T06:00:36.750Z,97226.25
2023-01-18T06:03:03.615Z,97227.47
2023-01-18T06:05:30.588Z,97238.50
2023-01-18T06:07:57.076Z,97237.50
2023-01-18T06:10:23.785Z,97237.63
2023-01-18T06:12:50.487Z,97237.72
2023-01-18T06:15:17.181Z,97243.56
2023-01-18T06:17:47.020Z,97246.56
2023-01-18T06:20:14.338Z,97256.34
2023-01-18T06:22:41.367Z,97255.78
2023-01-18T06:25:11.457Z,97269.16
2023-01-18T06:27:39.378Z,97270.25
2023-01-18T06:30:07.003Z,97276.16
2023-01-18T06:32:34.195Z,97279.81
2023-01-18T06:35:00.747Z,97283.03
2023-01-18T06:37:27.501Z,97284.81
2023-01-18T06:39:54.188Z,97295.41
2023-01-18T06:42:20.723Z,97308.41
2023-01-18T06:44:47.248Z,97309.13
2023-01-18T06:47:18.914Z,97307.63
2023-01-18T06:49:47.932Z,97312.63
2023-01-18T06:52:15.675Z,97319.72
2023-01-18T06:54:42.569Z,97315.50
2023-01-18T06:57:09.076Z,97329.78
2023-01-18T06:59:35.686Z,97326.69
2023-01-18T07:02:02.504Z,97335.63
2023-01-18T07:04:29.103Z,97336.09
2023-01-18T07:06:55.912Z,97349.78
2023-01-18T07:09:22.521Z,97348.25
2023-01-18T07:11:49.194Z,97363.41
2023-01-18T07:14:15.819Z,97365.19
2023-01-18T07:16:42.634Z,97377.34
2023-01-18T07:19:09.330Z,97379.22
2023-01-18T07:21:35.975Z,97383.34
2023-01-18T07:24:02.683Z,97389.31
2023-01-18T07:26:29.219Z,97395.94
2023-01-18T07:28:56.436Z,97404.75
2023-01-18T07:31:26.612Z,97404.44
2023-01-18T07:33:53.283Z,97407.22
2023-01-18T07:36:20.732Z,97416.47
2023-01-18T07:38:49.149Z,97418.25
2023-01-18T07:41:16.878Z,97418.50
2023-01-18T07:43:44.873Z,97420.25
2023-01-18T07:46:15.906Z,97428.56
2023-01-18T07:48:42.938Z,97441.16
2023-01-18T07:51:10.257Z,97439.19
2023-01-18T07:53:38.018Z,97452.34
2023-01-18T07:56:15.515Z,97455.94
2023-01-18T07:58:42.802Z,97464.78
2023-01-18T08:01:12.541Z,97477.81
2023-01-18T08:03:39.880Z,97477.38
2023-01-18T08:06:07.824Z,97486.34
2023-01-18T08:08:36.244Z,97501.81
2023-01-18T08:11:04.898Z,97511.50
2023-01-18T08:13:31.947Z,97514.00
2023-01-18T08:16:03.900Z,97522.50
2023-01-18T08:18:31.046Z,97525.69
2023-01-18T08:20:58.028Z,97538.84
2023-01-18T08:23:24.548Z,97546.06
2023-01-18T08:25:51.166Z,97556.59
2023-01-18T08:28:18.714Z,97566.13
2023-01-18T08:30:46.982Z,97571.69
2023-01-18T08:33:14.138Z,97571.88
2023-01-18T08:35:46.165Z,97581.16
2023-01-18T08:38:14.814Z,97586.81
2023-01-18T08:40:41.846Z,97590.00
2023-01-18T08:43:09.800Z,97610.16
2023-01-18T08:45:36.415Z,97607.88
2023-01-18T08:48:05.808Z,97627.94
2023-01-18T08:50:34.528Z,97634.22
2023-01-18T08:53:02.711Z,97633.84
2023-01-18T08:55:34.089Z,97645.13
2023-01-18T08:58:00.702Z,97655.94
2023-01-18T09:00:31.797Z,97663.44
2023-01-18T09:02:59.629Z,97674.72
2023-01-18T09:05:27.258Z,97677.75
2023-01-18T09:07:54.866Z,97689.56
2023-01-18T09:10:22.498Z,97699.25
2023-01-18T09:12:49.381Z,97718.88
2023-01-18T09:15:16.061Z,97716.09
2023-01-18T09:17:42.605Z,97735.09
2023-01-18T09:20:12.032Z,97732.28
2023-01-18T09:22:39.406Z,97734.28
2023-01-18T09:25:06.620Z,97750.72
2023-01-18T09:27:33.506Z,97752.59
2023-01-18T09:30:00.217Z,97764.38
2023-01-18T09:32:27.515Z,97772.94
2023-01-18T09:34:54.969Z,97777.63
2023-01-18T09:37:21.961Z,97787.19
2023-01-18T09:39:52.089Z,97788.25
2023-01-18T09:42:25.016Z,97801.19
2023-01-18T09:44:55.228Z,97807.75
2023-01-18T09:47:28.839Z,97806.88
2023-01-18T09:49:57.677Z,97819.19
2023-01-18T09:52:48.547Z,97828.94
2023-01-18T09:55:42.009Z,97828.63
2023-01-18T09:58:11.800Z,97845.84
2023-01-18T10:00:44.997Z,97850.25
2023-01-18T10:03:29.007Z,97865.88
2023-01-18T10:06:08.894Z,97870.41
2023-01-18T10:09:07.244Z,97887.00
2023-01-18T10:12:00.004Z,97885.88
2023-01-18T10:15:04.437Z,97904.72
2023-01-18T10:17:40.530Z,97904.53
2023-01-18T10:20:26.116Z,97916.19
2023-01-18T10:22:59.368Z,97916.00
2023-01-18T10:25:52.578Z,97929.38
2023-01-18T10:28:28.365Z,97929.66
2023-01-18T10:31:15.636Z,97940.41
2023-01-18T10:33:44.221Z,97948.66
2023-01-18T10:36:25.232Z,97953.22
2023-01-18T10:38:55.327Z,97959.75
2023-01-18T10:41:28.666Z,97972.31
2023-01-18T10:43:55.475Z,97979.59
2023-01-18T10:46:22.071Z,97979.25
2023-01-18T10:48:53.962Z,97992.38
2023-01-18T10:51:40.263Z,97996.03
2023-01-18T10:54:19.372Z,97997.50
2023-01-18T10:56:45.893Z,98008.50
2023-01-18T10:59:42.803Z,98003.59
2023-01-18T11:02:24.347Z,98008.16
2023-01-18T11:04:56.983Z,98005.22
2023-01-18T11:07:25.841Z,98010.31
2023-01-18T11:09:59.548Z,98024.94
2023-01-18T11:12:38.333Z,98028.22
2023-01-18T11:15:14.266Z,98030.75
2023-01-18T11:17:50.589Z,98026.94
2023-01-18T11:20:25.013Z,98031.50
2023-01-18T11:22:58.739Z,98036.81
2023-01-18T11:25:27.625Z,98043.19
2023-01-18T11:28:02.156Z,98041.38
2023-01-18T11:30:29.086Z,98047.22
2023-01-18T11:32:59.797Z,98049.03
2023-01-18T11:35:35.256Z,98052.88
2023-01-18T11:38:03.972Z,98045.66
2023-01-18T11:40:33.020Z,98053.28
2023-01-18T11:43:17.130Z,98053.69
2023-01-18T11:45:53.569Z,98069.19
2023-01-18T11:48:38.421Z,98067.91
2023-01-18T11:51:07.345Z,98073.69
2023-01-18T11:53:49.149Z,98073.78
2023-01-18T11:56:32.335Z,98078.09
2023-01-18T11:59:01.231Z,98075.94
2023-01-18T12:01:38.818Z,98084.50
2023-01-18T12:04:12.240Z,98082.38
2023-01-18T12:06:54.700Z,98085.94
2023-01-18T12:09:38.104Z,98094.34
2023-01-18T12:12:19.309Z,98090.25
2023-01-18T12:15:21.684Z,98095.91
2023-01-18T12:18:12.453Z,98107.28
2023-01-18T12:20:45.876Z,98105.53
2023-01-18T12:23:33.553Z,98106.97
2023-01-18T12:26:12.664Z,98111.25
2023-01-18T12:28:58.033Z,98110.88
2023-01-18T12:31:55.456Z,98111.63
2023-01-18T12:34:23.842Z,98116.09
2023-01-18T12:37:24.709Z,98123.41
2023-01-18T12:40:32.595Z,98126.19
2023-01-18T12:43:08.091Z,98129.75
2023-01-18T12:45:52.089Z,98136.19
2023-01-18T12:48:53.098Z,98140.53
2023-01-18T12:51:23.332Z,98140.97
2023-01-18T12:54:36.087Z,98142.78
2023-01-18T12:57:04.215Z,98132.72
2023-01-18T12:59:43.077Z,98148.81
2023-01-18T13:02:35.692Z,98144.38
2023-01-18T13:05:02.172Z,98156.72
2023-01-18T13:07:39.429Z,98136.72
2023-01-18T13:10:18.791Z,98142.41
2023-01-18T13:12:46.606Z,98155.13
2023-01-18T13:15:25.239Z,98158.84
2023-01-18T13:18:05.658Z,98150.84
2023-01-18T13:20:46.052Z,98160.97
2023-01-18T13:23:18.819Z,98160.63
2023-01-18T13:25:55.201Z,98164.44
2023-01-18T13:28:26.252Z,98159.53
2023-01-18T13:30:56.458Z,98158.41
2023-01-18T13:33:26.001Z,98153.84
2023-01-18T13:36:02.111Z,98150.50
2023-01-18T13:38:40.930Z,98160.38
2023-01-18T13:41:13.494Z,98149.09
2023-01-18T13:43:41.385Z,98149.91
2023-01-18T13:46:07.985Z,98158.22
2023-01-18T13:48:45.219Z,98165.41
2023-01-18T13:51:30.065Z,98168.97
2023-01-18T13:53:58.003Z,98162.72
2023-01-18T13:56:29.215Z,98176.63
2023-01-18T13:59:00.691Z,98170.13
2023-01-18T14:01:32.833Z,98182.75
2023-01-18T14:04:26.885Z,98184.09
2023-01-18T14:06:55.757Z,98195.66
2023-01-18T14:09:44.648Z,98193.59
2023-01-18T14:12:11.899Z,98189.16
2023-01-18T14:14:56.904Z,98203.81
2023-01-18T14:17:25.454Z,98205.91
2023-01-18T14:20:25.678Z,98206.72
2023-01-18T14:23:04.338Z,98229.97
2023-01-18T14:25:31.132Z,98222.03
2023-01-18T14:28:08.097Z,98233.09
2023-01-18T14:30:37.229Z,98226.13
2023-01-18T14:33:15.660Z,98233.31
2023-01-18T14:35:53.596Z,98237.19
2023-01-18T14:38:20.632Z,98248.81
2023-01-18T14:40:50.506Z,98249.06
2023-01-18T14:43:25.121Z,98265.94
2023-01-18T14:45:57.721Z,98259.50
2023-01-18T14:48:25.618Z,98273.78
2023-01-18T14:50:55.216Z,98274.50
2023-01-18T14:53:34.596Z,98292.94
2023-01-18T14:56:22.996Z,98293.00
2023-01-18T14:59:05.348Z,98303.59
2023-01-18T15:01:38.236Z,98297.38
2023-01-18T15:04:07.085Z,98301.94
2023-01-18T15:06:39.915Z,98305.06
2023-01-18T15:09:09.388Z,98304.50
2023-01-18T15:11:37.553Z,98322.06
2023-01-18T15:14:09.081Z,98321.69
2023-01-18T15:16:36.168Z,98327.91
2023-01-18T15:19:03.117Z,98320.06
2023-01-18T15:21:35.065Z,98329.19
2023-01-18T15:24:09.211Z,98334.31
2023-01-18T15:26:57.089Z,98344.38
2023-01-18T15:29:26.540Z,98344.75
2023-01-18T15:31:58.917Z,98349.69
2023-01-18T15:34:29.952Z,98371.09
2023-01-18T15:36:58.302Z,98371.22
2023-01-18T15:39:26.352Z,98371.03
2023-01-18T15:41:55.577Z,98389.69
2023-01-18T15:44:46.014Z,98382.41
2023-01-18T15:47:37.041Z,98384.94
2023-01-18T15:50:26.188Z,98394.78
2023-01-18T15:53:06.054Z,98404.13
2023-01-18T15:55:35.877Z,98405.16
2023-01-18T15:58:19.737Z,98420.25
2023-01-18T16:00:58.303Z,98433.56
2023-01-18T16:03:28.320Z,98437.38
2023-01-18T16:06:07.015Z,98438.47
2023-01-18T16:08:34.265Z,98435.34
2023-01-18T16:11:00.931Z,98445.34
2023-01-18T16:13:34.762Z,98456.09
2023-01-18T16:16:15.344Z,98463.50
2023-01-18T16:18:45.786Z,98466.44
2023-01-18T16:21:21.312Z,98462.84
2023-01-18T16:23:50.839Z,98483.22
2023-01-18T16:26:23.273Z,98476.28
2023-01-18T16:28:51.738Z,98471.59
2023-01-18T16:31:20.895Z,98488.16
2023-01-18T16:33:47.402Z,98501.88
2023-01-18T16:36:18.467Z,98497.19
2023-01-18T16:38:45.391Z,98505.00
2023-01-18T16:41:12.941Z,98509.41
2023-01-18T16:43:39.549Z,98514.69
2023-01-18T16:46:06.387Z,98510.34
2023-01-18T16:48:34.164Z,98518.47
2023-01-18T16:51:01.419Z,98529.31
2023-01-18T16:53:29.094Z,98531.41
2023-01-18T16:55:56.816Z,98539.00
2023-01-18T16:58:24.091Z,98538.13
2023-01-18T17:01:05.866Z,98534.78
2023-01-18T17:03:34.413Z,98537.53
2023-01-18T17:06:01.047Z,98545.06
2023-01-18T17:08:27.739Z,98556.81
2023-01-18T17:10:57.028Z,98555.75
2023-01-18T17:13:23.864Z,98565.84
2023-01-18T17:15:52.123Z,98566.78
2023-01-18T17:18:25.772Z,98574.16
2023-01-18T17:20:53.525Z,98585.22
2023-01-18T17:23:20.599Z,98582.28
2023-01-18T17:25:47.810Z,98590.50
2023-01-18T17:28:17.177Z,98598.78
2023-01-18T17:30:46.320Z,98601.44
2023-01-18T17:33:23.307Z,98593.34
2023-01-18T17:35:51.495Z,98591.56
2023-01-18T17:38:24.282Z,98603.78
2023-01-18T17:40:52.530Z,98602.03
2023-01-18T17:43:32.007Z,98603.19
2023-01-18T17:46:02.905Z,98611.53
2023-01-18T17:48:29.674Z,98615.59
2023-01-18T17:50:56.272Z,98613.72
2023-01-18T17:53:22.846Z,98613.16
2023-01-18T17:55:49.544Z,98623.59
2023-01-18T17:58:16.093Z,98634.13
2023-01-18T18:00:42.647Z,98637.19
2023-01-18T18:03:09.577Z,98632.72
2023-01-18T18:05:36.457Z,98647.34
2023-01-18T18:08:03.057Z,98646.31
2023-01-18T18:10:30.111Z,98635.88
2023-01-18T18:12:56.773Z,98646.97
2023-01-18T18:15:23.701Z,98644.84
2023-01-18T18:17:50.398Z,98661.63
2023-01-18T18:20:17.631Z,98660.13
2023-01-18T18:22:44.348Z,98667.59
2023-01-18T18:25:11.037Z,98667.34
2023-01-18T18:27:45.479Z,98674.47
2023-01-18T18:30:13.339Z,98678.47
2023-01-18T18:32:39.901Z,98678.94
2023-01-18T18:35:23.015Z,98684.47
2023-01-18T18:37:51.081Z,98689.13
2023-01-18T18:40:17.928Z,98699.31
2023-01-18T18:42:49.880Z,98701.41
2023-01-18T18:45:27.219Z,98704.69
2023-01-18T18:47:53.763Z,98713.25
2023-01-18T18:50:20.353Z,98704.78
2023-01-18T18:52:47.030Z,98717.69
2023-01-18T18:55:13.694Z,98722.97
2023-01-18T18:57:40.289Z,98726.84
2023-01-18T19:00:07.611Z,98726.00
2023-01-18T19:02:35.310Z,98728.97
2023-01-18T19:05:02.147Z,98730.66
2023-01-18T21:58:12.482Z,98853.13
2023-01-18T22:00:41.016Z,98852.03
2023-01-18T22:03:09.529Z,98857.84
2023-01-18T22:05:36.134Z,98855.78
2023-01-18T22:08:02.991Z,98851.53
2023-01-18T22:10:29.730Z,98853.69
2023-01-18T22:12:56.560Z,98854.09
2023-01-18T22:15:23.172Z,98856.63
2023-01-18T22:17:49.739Z,98861.59
2023-01-18T22:20:16.740Z,98855.97
2023-01-18T22:22:43.259Z,98853.06
2023-01-18T22:25:10.166Z,98856.09
2023-01-18T22:27:36.840Z,98860.16
2023-01-18T22:30:04.746Z,98861.19
2023-01-18T22:32:31.373Z,98865.84
2023-01-18T22:34:57.940Z,98867.09
2023-01-18T22:37:25.950Z,98861.94
2023-01-18T22:39:52.621Z,98862.47
2023-01-18T22:42:19.181Z,98867.41
2023-01-18T22:44:45.722Z,98867.19
2023-01-18T22:47:12.273Z,98868.13
2023-01-18T22:49:38.849Z,98857.28
2023-01-18T22:52:05.446Z,98858.13
2023-01-18T22:54:32.004Z,98858.16
2023-01-18T22:56:58.647Z,98860.28
2023-01-18T22:59:25.144Z,98871.97
2023-01-18T23:01:51.782Z,98869.97
2023-01-18T23:04:18.970Z,98869.31
2023-01-18T23:06:46.838Z,98870.38
2023-01-18T23:09:15.071Z,98866.78
2023-01-18T23:11:41.783Z,98873.75
2023-01-18T23:14:26.675Z,98878.16
2023-01-18T23:17:11.809Z,98888.50
2023-01-18T23:19:38.430Z,98886.69
2023-01-18T23:22:07.275Z,98878.53
2023-01-18T23:24:36.146Z,98890.97
2023-01-18T23:27:04.837Z,98876.28
2023-01-18T23:29:31.501Z,98869.81
2023-01-18T23:31:58.486Z,98875.22
2023-01-18T23:34:25.673Z,98879.22
2023-01-18T23:36:52.490Z,98873.50
2023-01-18T23:39:37.663Z,98884.19
2023-01-18T23:42:22.855Z,98889.66
2023-01-18T23:45:07.867Z,98892.06
2023-01-18T23:47:54.016Z,98883.63
2023-01-18T23:50:39.457Z,98882.69
2023-01-18T23:53:24.713Z,98892.69
2023-01-18T23:55:53.038Z,98889.53
2023-01-18T23:58:19.721Z,98892.25
